Time;durP1;ratioP1;P1;durP2;ratioP2;P2;SDS_P1;SDS_P2;PMS_P1;PMS_P2;Temp;Humidity;BMP_temperature;BMP_pressure;BME280_temperature;BME280_humidity;BME280_pressure;Samples;Min_cycle;Max_cycle;Signal;HPM_P1;HPM_P2
2021/12/30 00:00:41;;;;;;;11.80;2.03;;;10.70;96.50;;;;;;5046395;28;20051;-67
2021/12/30 00:03:08;;;;;;;13.07;2.22;;;10.70;96.60;;;;;;5034753;28;20481;-67
2021/12/30 00:05:34;;;;;;;9.55;2.50;;;10.70;96.50;;;;;;5053848;28;20037;-67
2021/12/30 00:08:01;;;;;;;6.70;1.52;;;10.70;96.60;;;;;;5051363;28;20041;-67
2021/12/30 00:10:27;;;;;;;3.30;2.28;;;10.70;96.60;;;;;;5051785;28;20040;-68
2021/12/30 00:12:53;;;;;;;11.82;2.65;;;10.70;96.60;;;;;;5047567;28;20389;-67
2021/12/30 00:15:20;;;;;;;5.80;1.75;;;10.70;96.60;;;;;;5047090;28;20040;-67
2021/12/30 00:17:46;;;;;;;7.43;2.25;;;10.70;96.50;;;;;;5045765;28;20409;-68
2021/12/30 00:20:16;;;;;;;5.10;1.80;;;10.70;96.50;;;;;;5046867;28;20098;-68
2021/12/30 00:22:42;;;;;;;12.98;2.38;;;10.70;96.50;;;;;;5044839;28;20049;-68
2021/12/30 00:25:10;;;;;;;8.98;2.38;;;10.60;96.50;;;;;;5046187;28;20047;-68
2021/12/30 00:27:35;;;;;;;14.05;2.20;;;10.60;96.50;;;;;;5042676;28;20041;-67
2021/12/30 00:30:02;;;;;;;7.22;1.85;;;10.60;96.50;;;;;;5051775;28;20491;-68
2021/12/30 00:32:27;;;;;;;5.78;1.35;;;10.60;96.50;;;;;;5043275;28;20033;-68
2021/12/30 00:34:54;;;;;;;9.10;2.67;;;10.60;96.50;;;;;;5032805;28;20465;-67
2021/12/30 00:37:19;;;;;;;4.28;1.70;;;10.60;96.50;;;;;;5043463;28;20033;-67
2021/12/30 00:39:45;;;;;;;4.10;1.75;;;10.60;96.50;;;;;;5039471;28;20029;-67
2021/12/30 00:42:11;;;;;;;18.75;3.13;;;10.60;96.40;;;;;;5052847;28;20068;-67
2021/12/30 00:44:36;;;;;;;7.82;2.78;;;10.50;96.40;;;;;;5048589;28;20120;-67
2021/12/30 00:47:03;;;;;;;7.90;1.70;;;10.60;96.40;;;;;;5032489;28;20040;-67
2021/12/30 00:49:29;;;;;;;9.70;2.47;;;10.50;96.40;;;;;;5046342;28;20089;-67
2021/12/30 00:51:55;;;;;;;7.55;1.80;;;10.50;96.50;;;;;;5051383;28;20037;-67
2021/12/30 00:54:22;;;;;;;9.13;2.63;;;10.50;96.50;;;;;;5033656;28;20481;-67
2021/12/30 00:56:48;;;;;;;8.60;2.35;;;10.50;96.50;;;;;;5044852;28;20544;-67
2021/12/30 00:59:14;;;;;;;16.55;3.10;;;10.40;96.60;;;;;;5052244;28;20167;-68
2021/12/30 01:01:39;;;;;;;18.58;3.47;;;10.40;96.70;;;;;;5052936;28;20025;-68
2021/12/30 01:04:05;;;;;;;13.23;2.58;;;10.40;96.70;;;;;;5052226;28;20028;-68
2021/12/30 01:06:34;;;;;;;8.32;1.55;;;10.40;96.70;;;;;;5041385;28;20443;-67
2021/12/30 01:09:00;;;;;;;18.98;3.25;;;10.40;96.80;;;;;;5032663;28;20124;-68
2021/12/30 01:11:26;;;;;;;8.90;2.38;;;10.40;96.90;;;;;;5040484;28;20044;-67
2021/12/30 01:14:15;;;;;;;6.05;1.75;;;10.40;96.80;;;;;;5049925;28;20037;-68
2021/12/30 01:16:44;;;;;;;13.88;3.50;;;10.50;96.80;;;;;;5032871;28;20041;-67
2021/12/30 01:19:22;;;;;;;12.93;2.67;;;10.40;96.80;;;;;;5044822;28;20033;-67
2021/12/30 01:21:52;;;;;;;4.50;2.05;;;10.40;96.80;;;;;;5046349;28;20036;-67
2021/12/30 01:24:18;;;;;;;6.15;1.95;;;10.50;96.70;;;;;;5052234;28;20039;-67
2021/12/30 01:26:44;;;;;;;18.97;3.87;;;10.50;97.00;;;;;;5049924;28;20025;-67
2021/12/30 01:29:09;;;;;;;5.82;1.55;;;10.50;96.70;;;;;;5038452;28;20256;-68
2021/12/30 01:31:35;;;;;;;3.15;1.55;;;10.50;96.70;;;;;;5047714;28;20773;-67
2021/12/30 01:34:01;;;;;;;9.90;2.22;;;10.50;96.70;;;;;;5050956;28;20025;-67
2021/12/30 01:36:27;;;;;;;11.23;2.72;;;10.50;96.60;;;;;;5051796;28;20041;-68
2021/12/30 01:38:54;;;;;;;9.30;2.83;;;10.50;96.60;;;;;;5051808;28;20059;-67
2021/12/30 01:41:21;;;;;;;15.48;3.50;;;10.50;96.60;;;;;;5038318;28;20480;-68
2021/12/30 01:43:47;;;;;;;5.10;1.63;;;10.50;96.90;;;;;;5041921;28;20048;-67
2021/12/30 01:46:13;;;;;;;4.65;2.05;;;10.50;96.60;;;;;;5045617;28;20074;-68
2021/12/30 01:48:39;;;;;;;18.80;3.42;;;10.60;96.60;;;;;;5051669;28;20045;-67
2021/12/30 01:51:06;;;;;;;15.88;3.10;;;10.50;96.50;;;;;;5038725;28;20068;-67
2021/12/30 01:53:32;;;;;;;19.38;3.40;;;10.50;96.50;;;;;;5044775;28;20042;-67
2021/12/30 01:55:58;;;;;;;13.60;3.05;;;10.50;96.50;;;;;;5031333;28;20061;-68
2021/12/30 01:58:24;;;;;;;10.57;2.70;;;10.50;96.50;;;;;;5032226;28;20033;-67
2021/12/30 02:00:50;;;;;;;6.80;2.95;;;10.50;96.50;;;;;;5047117;28;20036;-67
2021/12/30 02:03:18;;;;;;;10.98;2.17;;;10.50;96.50;;;;;;5051138;28;20029;-68
2021/12/30 02:05:44;;;;;;;3.03;1.20;;;10.50;96.50;;;;;;5042567;28;20055;-67
2021/12/30 02:08:14;;;;;;;18.15;3.97;;;10.50;96.50;;;;;;5040860;28;20045;-67
2021/12/30 02:10:40;;;;;;;16.67;2.83;;;10.50;96.50;;;;;;5038420;28;20029;-68
2021/12/30 02:13:07;;;;;;;15.27;2.88;;;10.50;96.50;;;;;;5047980;28;20033;-68
2021/12/30 02:15:36;;;;;;;8.13;1.95;;;10.50;96.50;;;;;;5040289;28;20484;-68
2021/12/30 02:18:03;;;;;;;15.52;2.92;;;10.50;96.50;;;;;;5040332;28;20435;-68
2021/12/30 02:20:45;;;;;;;9.65;2.45;;;10.50;96.50;;;;;;5039292;28;20052;-67
2021/12/30 02:23:13;;;;;;;6.18;2.20;;;10.40;96.50;;;;;;5038103;28;20056;-68
2021/12/30 02:25:39;;;;;;;4.60;1.55;;;10.40;96.50;;;;;;5049486;28;20526;-68
2021/12/30 02:28:12;;;;;;;12.70;2.30;;;10.50;96.50;;;;;;5037050;28;20076;-68
2021/12/30 02:30:39;;;;;;;4.70;1.92;;;10.50;96.50;;;;;;5040998;28;20120;-68
2021/12/30 02:33:05;;;;;;;11.32;2.22;;;10.40;96.40;;;;;;5036495;28;20052;-67
2021/12/30 02:35:31;;;;;;;15.38;2.88;;;10.50;96.40;;;;;;5041236;28;20029;-67
2021/12/30 02:37:58;;;;;;;13.07;3.50;;;10.40;96.40;;;;;;5040251;28;20045;-68
2021/12/30 02:40:32;;;;;;;9.77;2.33;;;10.50;96.40;;;;;;5045269;28;20025;-67
2021/12/30 02:42:59;;;;;;;8.10;3.85;;;10.50;96.40;;;;;;5049557;28;20490;-67
2021/12/30 02:45:27;;;;;;;12.10;2.13;;;10.50;96.30;;;;;;5054727;28;20021;-67
2021/12/30 02:47:53;;;;;;;14.75;3.60;;;10.40;96.50;;;;;;5055008;28;20037;-67
2021/12/30 02:50:19;;;;;;;13.38;2.20;;;10.40;96.20;;;;;;5055090;28;20035;-68
2021/12/30 02:52:44;;;;;;;8.65;3.08;;;10.50;96.20;;;;;;5046863;28;20116;-67
2021/12/30 02:55:10;;;;;;;6.00;1.85;;;10.50;96.20;;;;;;5034897;28;20036;-68
2021/12/30 02:57:36;;;;;;;17.77;3.08;;;10.50;96.20;;;;;;5035713;28;20484;-67
2021/12/30 03:00:06;;;;;;;8.98;2.70;;;10.40;96.10;;;;;;5036356;28;20037;-68
2021/12/30 03:02:31;;;;;;;3.85;2.00;;;10.40;96.10;;;;;;5054973;28;20025;-67
2021/12/30 03:04:57;;;;;;;12.55;2.75;;;10.40;96.10;;;;;;5054480;28;20036;-68
2021/12/30 03:07:22;;;;;;;9.25;3.58;;;10.40;96.10;;;;;;5054403;28;20362;-67
2021/12/30 03:09:48;;;;;;;11.35;2.22;;;10.40;96.10;;;;;;5054978;28;20028;-67
2021/12/30 03:12:15;;;;;;;12.48;2.47;;;10.40;96.10;;;;;;5045093;28;20108;-68
2021/12/30 03:14:43;;;;;;;10.77;2.35;;;10.40;96.10;;;;;;5051305;28;20091;-68
2021/12/30 03:17:09;;;;;;;3.97;1.30;;;10.40;96.10;;;;;;5043844;28;20061;-67
2021/12/30 03:19:35;;;;;;;6.82;2.10;;;10.40;96.10;;;;;;5047665;28;20049;-67
2021/12/30 03:22:01;;;;;;;9.02;3.50;;;10.40;96.10;;;;;;5045858;28;20033;-67
2021/12/30 03:24:27;;;;;;;10.70;2.33;;;10.40;96.10;;;;;;5036187;28;20033;-67
2021/12/30 03:26:52;;;;;;;12.82;2.85;;;10.40;96.10;;;;;;5034132;28;20033;-68
2021/12/30 03:29:18;;;;;;;11.75;3.00;;;10.40;96.10;;;;;;5053010;28;20036;-68
2021/12/30 03:31:44;;;;;;;6.35;2.40;;;10.40;96.20;;;;;;5042021;28;23499;-67
2021/12/30 03:34:09;;;;;;;17.90;3.58;;;10.40;96.20;;;;;;5048434;28;20060;-67
2021/12/30 03:36:37;;;;;;;8.60;3.00;;;10.40;96.20;;;;;;5054098;28;20116;-68
2021/12/30 03:39:08;;;;;;;15.07;3.55;;;10.40;96.20;;;;;;5053187;28;20488;-68
2021/12/30 03:41:37;;;;;;;13.48;1.27;;;10.40;96.20;;;;;;5045702;28;20362;-67
2021/12/30 03:44:03;;;;;;;6.50;2.42;;;10.40;96.20;;;;;;5053778;28;20040;-67
2021/12/30 03:46:29;;;;;;;11.00;3.65;;;10.40;96.20;;;;;;5054231;28;20468;-67
2021/12/30 03:48:55;;;;;;;6.15;2.33;;;10.40;96.10;;;;;;5053428;28;20053;-67
2021/12/30 03:51:24;;;;;;;11.52;3.50;;;10.50;96.10;;;;;;5044388;28;20048;-67
2021/12/30 03:53:55;;;;;;;18.50;4.88;;;10.40;96.10;;;;;;5050867;28;20555;-67
2021/12/30 03:56:24;;;;;;;19.10;3.65;;;10.50;96.10;;;;;;5052302;28;20056;-67
2021/12/30 03:58:50;;;;;;;16.17;4.20;;;10.50;96.10;;;;;;5040083;28;20017;-67
2021/12/30 04:01:19;;;;;;;15.25;3.72;;;10.50;96.10;;;;;;5042909;28;20508;-68
2021/12/30 04:03:45;;;;;;;14.52;3.20;;;10.50;96.20;;;;;;5046335;28;20108;-68
2021/12/30 04:06:11;;;;;;;3.22;1.70;;;10.50;96.20;;;;;;5046895;28;20045;-67
2021/12/30 04:08:37;;;;;;;4.22;2.30;;;10.50;96.20;;;;;;5040198;28;20051;-67
2021/12/30 04:11:03;;;;;;;13.00;4.43;;;10.40;96.20;;;;;;5039867;28;20160;-67
2021/12/30 04:13:33;;;;;;;14.80;2.42;;;10.40;96.20;;;;;;5046491;28;20033;-67
2021/12/30 04:15:59;;;;;;;2.45;1.65;;;10.50;96.30;;;;;;5046894;28;20375;-68
2021/12/30 04:18:25;;;;;;;17.48;3.53;;;10.50;96.20;;;;;;5033420;28;20108;-67
2021/12/30 04:20:51;;;;;;;7.07;1.95;;;10.50;96.30;;;;;;5046544;28;20033;-67
2021/12/30 04:23:17;;;;;;;4.07;2.10;;;10.40;96.30;;;;;;5041700;28;20055;-68
2021/12/30 04:25:43;;;;;;;21.00;4.05;;;10.50;96.40;;;;;;5040326;28;20100;-68
2021/12/30 04:28:09;;;;;;;13.07;2.80;;;10.50;96.30;;;;;;5044192;28;20044;-67
2021/12/30 04:30:36;;;;;;;16.63;4.78;;;10.50;96.40;;;;;;5032699;28;20038;-68
2021/12/30 04:33:02;;;;;;;8.05;3.25;;;10.50;96.40;;;;;;5043255;28;20090;-68
2021/12/30 04:35:28;;;;;;;9.35;2.63;;;10.50;96.40;;;;;;5036708;28;20045;-68
2021/12/30 04:37:53;;;;;;;25.05;4.20;;;10.50;96.50;;;;;;5042701;28;20856;-67
2021/12/30 04:40:19;;;;;;;13.57;3.33;;;10.50;96.40;;;;;;5053006;28;20052;-67
2021/12/30 04:42:44;;;;;;;12.77;3.30;;;10.50;96.40;;;;;;5052836;28;20365;-67
2021/12/30 04:45:12;;;;;;;10.55;2.30;;;10.50;96.50;;;;;;5052919;28;20488;-68
2021/12/30 04:47:39;;;;;;;7.25;3.13;;;10.50;96.50;;;;;;5052820;28;20036;-67
2021/12/30 04:50:08;;;;;;;8.38;1.67;;;10.50;96.50;;;;;;5053063;28;20606;-67
2021/12/30 04:52:33;;;;;;;8.45;2.70;;;10.50;96.50;;;;;;5040066;28;20033;-68
2021/12/30 04:54:59;;;;;;;4.03;1.95;;;10.60;96.50;;;;;;5052633;28;20043;-67
2021/12/30 04:57:25;;;;;;;3.65;1.88;;;10.50;96.50;;;;;;5045877;28;20053;-67
2021/12/30 04:59:50;;;;;;;14.23;2.47;;;10.60;96.50;;;;;;5045543;28;20044;-67
2021/12/30 05:02:39;;;;;;;20.25;4.55;;;10.60;96.50;;;;;;5032990;28;20036;-67
2021/12/30 05:05:05;;;;;;;9.57;3.03;;;10.60;96.50;;;;;;5045749;28;20036;-67
2021/12/30 05:07:30;;;;;;;8.40;2.90;;;10.70;96.60;;;;;;5042759;28;20040;-67
2021/12/30 05:09:56;;;;;;;3.67;1.30;;;10.60;96.50;;;;;;5047805;28;20037;-68
2021/12/30 05:12:22;;;;;;;16.10;2.15;;;10.60;96.60;;;;;;5042541;28;20033;-67
2021/12/30 05:14:47;;;;;;;9.82;3.03;;;10.60;96.60;;;;;;5051371;28;20392;-67
2021/12/30 05:17:13;;;;;;;11.00;2.55;;;10.70;96.60;;;;;;5052410;28;20029;-67
2021/12/30 05:19:39;;;;;;;10.68;3.83;;;10.70;96.60;;;;;;5051898;28;20358;-67
2021/12/30 05:22:04;;;;;;;16.75;3.70;;;10.70;96.60;;;;;;5052364;28;20400;-67
2021/12/30 05:24:30;;;;;;;9.52;2.92;;;10.70;96.70;;;;;;5039142;28;20438;-67
2021/12/30 05:26:56;;;;;;;11.05;3.35;;;10.80;96.70;;;;;;5040459;28;20354;-67
2021/12/30 05:29:21;;;;;;;7.80;2.70;;;10.80;96.70;;;;;;5037234;28;20135;-67
2021/12/30 05:31:47;;;;;;;10.55;3.40;;;10.80;96.80;;;;;;5040738;28;20104;-67
2021/12/30 05:34:12;;;;;;;11.15;2.78;;;10.70;96.70;;;;;;5045007;28;20025;-67
2021/12/30 05:36:38;;;;;;;28.23;4.25;;;10.80;96.80;;;;;;5032206;28;20441;-67
2021/12/30 05:39:04;;;;;;;17.92;4.60;;;10.80;96.90;;;;;;5043589;28;20025;-67
2021/12/30 05:41:29;;;;;;;17.80;5.35;;;10.80;96.90;;;;;;5045054;28;20086;-67
2021/12/30 05:43:56;;;;;;;22.25;5.50;;;10.80;97.00;;;;;;5050600;28;20033;-67
2021/12/30 05:46:21;;;;;;;14.85;3.97;;;10.80;97.10;;;;;;5040611;28;20033;-67
2021/12/30 05:48:47;;;;;;;19.67;4.07;;;10.90;97.20;;;;;;5036404;28;20048;-67
2021/12/30 05:51:13;;;;;;;29.45;5.88;;;10.90;97.20;;;;;;5040618;28;20025;-67
2021/12/30 05:53:38;;;;;;;5.07;2.72;;;10.90;97.30;;;;;;5036418;28;20087;-67
2021/12/30 05:56:04;;;;;;;6.03;2.92;;;10.90;97.30;;;;;;5031787;28;20083;-67
2021/12/30 05:58:29;;;;;;;14.77;4.10;;;10.90;97.30;;;;;;5032046;28;20469;-67
2021/12/30 06:00:55;;;;;;;17.30;4.22;;;11.00;97.30;;;;;;5032169;28;20381;-67
2021/12/30 06:03:21;;;;;;;12.23;3.50;;;11.00;97.30;;;;;;5047676;28;20037;-67
2021/12/30 06:05:49;;;;;;;24.45;5.53;;;11.00;97.30;;;;;;5051799;28;20029;-67
2021/12/30 06:08:15;;;;;;;19.05;4.63;;;11.10;97.40;;;;;;5038625;28;20040;-67
2021/12/30 06:10:42;;;;;;;14.68;4.95;;;11.10;97.40;;;;;;5051694;28;20040;-67
2021/12/30 06:13:09;;;;;;;9.15;3.22;;;11.20;97.40;;;;;;5038415;28;20123;-67
2021/12/30 06:15:35;;;;;;;11.85;3.55;;;11.20;97.40;;;;;;5046192;28;20025;-67
2021/12/30 06:18:00;;;;;;;10.65;4.13;;;11.20;97.40;;;;;;5046609;28;20035;-67
2021/12/30 06:20:28;;;;;;;13.60;3.33;;;11.20;97.50;;;;;;5046530;28;20029;-67
2021/12/30 06:22:53;;;;;;;10.95;3.85;;;11.30;97.60;;;;;;5041629;28;20029;-67
2021/12/30 06:25:19;;;;;;;8.50;2.80;;;11.30;97.60;;;;;;5044515;28;20040;-67
2021/12/30 06:27:45;;;;;;;8.30;3.55;;;11.30;97.70;;;;;;5048715;28;20037;-67
2021/12/30 06:30:11;;;;;;;4.65;2.15;;;11.30;97.70;;;;;;5035205;28;20037;-67
2021/12/30 06:32:37;;;;;;;6.97;3.08;;;11.40;97.80;;;;;;5040800;28;20031;-67
2021/12/30 06:35:03;;;;;;;5.43;2.67;;;11.40;97.80;;;;;;5043127;28;20033;-67
2021/12/30 06:37:30;;;;;;;7.00;2.78;;;11.50;97.80;;;;;;5054219;28;20039;-67
2021/12/30 06:39:56;;;;;;;15.63;3.60;;;11.40;97.80;;;;;;5043581;28;20115;-67
2021/12/30 06:42:21;;;;;;;2.38;1.92;;;11.50;97.80;;;;;;5035421;28;20084;-67
2021/12/30 06:44:47;;;;;;;3.85;2.47;;;11.50;97.80;;;;;;5033853;28;20041;-67
2021/12/30 06:47:13;;;;;;;9.18;2.65;;;11.60;97.80;;;;;;5036654;28;20040;-67
2021/12/30 06:49:38;;;;;;;6.80;2.55;;;11.60;97.90;;;;;;5038636;28;20035;-68
2021/12/30 06:52:07;;;;;;;4.45;1.90;;;11.60;97.90;;;;;;5055034;28;20419;-69
2021/12/30 06:54:32;;;;;;;4.47;1.88;;;11.60;98.00;;;;;;5041578;28;20043;-67
2021/12/30 06:57:00;;;;;;;12.98;2.80;;;11.70;98.10;;;;;;5055182;28;20056;-68
2021/12/30 06:59:27;;;;;;;1.10;1.02;;;11.60;98.10;;;;;;5054389;28;20120;-67
2021/12/30 07:01:53;;;;;;;3.92;2.08;;;11.70;98.10;;;;;;5038653;28;20064;-67
2021/12/30 07:04:18;;;;;;;7.80;2.78;;;11.70;98.20;;;;;;5035200;28;20033;-66
2021/12/30 07:06:44;;;;;;;6.97;3.67;;;11.70;98.10;;;;;;5035777;28;20029;-67
2021/12/30 07:09:10;;;;;;;5.50;3.03;;;11.80;98.20;;;;;;5036064;28;20049;-67
2021/12/30 07:11:35;;;;;;;10.00;3.00;;;11.80;98.20;;;;;;5035133;28;20025;-67
2021/12/30 07:14:04;;;;;;;7.78;3.50;;;11.80;98.20;;;;;;5036076;28;20032;-66
2021/12/30 07:16:29;;;;;;;7.68;3.55;;;11.90;98.20;;;;;;5043993;28;20318;-66
2021/12/30 07:18:56;;;;;;;9.25;4.13;;;11.90;98.30;;;;;;5035730;28;20112;-67
2021/12/30 07:21:22;;;;;;;6.82;2.38;;;11.90;98.30;;;;;;5041265;28;20053;-67
2021/12/30 07:23:48;;;;;;;7.03;3.10;;;11.90;98.30;;;;;;5037797;28;20037;-67
2021/12/30 07:26:13;;;;;;;6.10;2.88;;;11.90;98.30;;;;;;5035183;28;20026;-68
2021/12/30 07:28:39;;;;;;;4.30;2.75;;;12.00;98.30;;;;;;5040933;28;20394;-68
2021/12/30 07:31:04;;;;;;;3.70;2.03;;;12.00;98.20;;;;;;5039409;28;20026;-76
2021/12/30 07:33:30;;;;;;;7.93;3.03;;;12.00;98.20;;;;;;5035065;28;20057;-69
2021/12/30 07:35:56;;;;;;;4.78;1.88;;;12.00;98.50;;;;;;5038353;28;20028;-69
2021/12/30 07:38:23;;;;;;;5.57;3.38;;;12.10;98.30;;;;;;5038350;28;20033;-68
2021/12/30 07:40:49;;;;;;;8.90;3.60;;;12.10;98.30;;;;;;5037618;28;20044;-68
2021/12/30 07:43:14;;;;;;;12.43;3.50;;;12.10;98.30;;;;;;5035274;28;20037;-68
2021/12/30 07:45:40;;;;;;;6.65;3.58;;;12.20;98.30;;;;;;5045158;28;20031;-68
2021/12/30 07:48:06;;;;;;;4.95;2.58;;;12.20;98.40;;;;;;5050781;28;20033;-68
2021/12/30 07:50:32;;;;;;;4.90;2.70;;;12.20;98.40;;;;;;5050362;28;20079;-68
2021/12/30 07:52:59;;;;;;;6.20;2.53;;;12.20;98.40;;;;;;5048764;28;20384;-68
2021/12/30 07:55:25;;;;;;;2.72;1.92;;;12.20;98.50;;;;;;5050306;28;20061;-68
2021/12/30 07:57:55;;;;;;;2.75;1.50;;;12.30;98.50;;;;;;5044490;28;20083;-68
2021/12/30 08:00:22;;;;;;;3.15;1.75;;;12.30;98.50;;;;;;5045714;28;20040;-68
2021/12/30 08:02:48;;;;;;;1.88;1.60;;;12.30;98.60;;;;;;5039162;28;20051;-69
2021/12/30 08:05:15;;;;;;;2.80;1.73;;;12.30;98.60;;;;;;5048321;28;20028;-68
2021/12/30 08:07:42;;;;;;;4.97;1.98;;;12.30;98.60;;;;;;5047996;28;20045;-68
2021/12/30 08:10:12;;;;;;;1.52;1.42;;;12.40;98.60;;;;;;5050231;28;20507;-70
2021/12/30 08:12:39;;;;;;;2.58;1.70;;;12.40;98.60;;;;;;5048090;28;20039;-79
2021/12/30 08:15:06;;;;;;;8.68;1.65;;;12.40;98.60;;;;;;5047779;28;20378;-67
2021/12/30 08:17:36;;;;;;;2.22;1.58;;;12.40;98.60;;;;;;5045141;28;20116;-67
2021/12/30 08:20:06;;;;;;;2.53;1.20;;;12.50;98.60;;;;;;5048352;28;20743;-66
2021/12/30 08:22:36;;;;;;;0.43;0.43;;;12.50;98.60;;;;;;5050431;28;20025;-71
2021/12/30 08:25:03;;;;;;;2.88;1.63;;;12.60;98.60;;;;;;5050415;28;20487;-67
2021/12/30 08:27:28;;;;;;;1.65;1.40;;;12.60;98.60;;;;;;5044534;28;20496;-66
2021/12/30 08:29:54;;;;;;;1.52;1.25;;;12.50;98.60;;;;;;5041624;28;20029;-66
2021/12/30 08:32:20;;;;;;;1.88;1.40;;;12.60;98.60;;;;;;5044019;28;20076;-67
2021/12/30 08:34:46;;;;;;;1.60;1.30;;;12.60;98.60;;;;;;5044069;28;20025;-67
2021/12/30 08:37:12;;;;;;;1.67;1.42;;;12.60;98.70;;;;;;5041873;28;20374;-66
2021/12/30 08:39:40;;;;;;;1.60;1.25;;;12.70;98.70;;;;;;5044247;28;20021;-67
2021/12/30 08:42:18;;;;;;;4.97;1.27;;;12.60;98.80;;;;;;5040726;28;20380;-67
2021/12/30 08:44:45;;;;;;;1.05;0.95;;;12.60;98.80;;;;;;5041020;28;20025;-66
2021/12/30 08:47:11;;;;;;;2.58;1.17;;;12.70;98.90;;;;;;5041719;28;20041;-67
2021/12/30 08:49:36;;;;;;;1.33;1.10;;;12.60;98.90;;;;;;5043731;28;20044;-67
2021/12/30 08:52:02;;;;;;;1.50;1.23;;;12.70;99.00;;;;;;5042818;28;20037;-67
2021/12/30 08:54:29;;;;;;;2.47;1.33;;;12.70;99.00;;;;;;5043867;28;20025;-67
2021/12/30 08:56:55;;;;;;;1.67;1.17;;;12.70;99.00;;;;;;5041532;28;20056;-67
2021/12/30 08:59:21;;;;;;;1.05;0.80;;;12.70;99.10;;;;;;5040979;28;20033;-67
2021/12/30 09:01:46;;;;;;;0.80;0.80;;;12.70;99.10;;;;;;5041361;28;20503;-67
2021/12/30 09:04:12;;;;;;;2.80;1.40;;;12.70;99.10;;;;;;5040642;28;20049;-67
2021/12/30 09:06:37;;;;;;;1.55;1.45;;;12.70;99.20;;;;;;5038158;28;20025;-67
2021/12/30 09:09:03;;;;;;;2.30;1.10;;;12.70;99.30;;;;;;5043625;28;20072;-67
2021/12/30 09:11:29;;;;;;;1.90;1.60;;;12.70;99.50;;;;;;5043344;28;20422;-67
2021/12/30 09:13:55;;;;;;;2.40;1.90;;;12.70;99.50;;;;;;5038853;28;20038;-67
2021/12/30 09:16:21;;;;;;;2.55;1.80;;;12.70;99.60;;;;;;5044540;28;20366;-67
2021/12/30 09:18:46;;;;;;;4.05;2.20;;;12.70;99.70;;;;;;5048268;28;20108;-67
2021/12/30 09:21:12;;;;;;;3.97;2.10;;;12.70;99.80;;;;;;5046887;28;20037;-67
2021/12/30 09:23:37;;;;;;;2.97;2.00;;;12.70;99.90;;;;;;5047990;28;20036;-67
2021/12/30 09:26:03;;;;;;;5.32;2.17;;;12.70;99.90;;;;;;5048116;28;20029;-68
2021/12/30 09:28:29;;;;;;;3.28;2.00;;;12.70;99.90;;;;;;5043022;28;20047;-68
2021/12/30 09:30:54;;;;;;;4.70;1.38;;;12.70;99.90;;;;;;5043098;28;20032;-68
2021/12/30 09:33:20;;;;;;;2.60;1.55;;;12.70;99.90;;;;;;5046753;28;20043;-68
2021/12/30 09:35:49;;;;;;;3.88;2.08;;;12.70;99.90;;;;;;5040936;28;20033;-68
2021/12/30 09:38:15;;;;;;;4.03;1.70;;;12.80;99.90;;;;;;5046154;28;20059;-68
2021/12/30 09:40:40;;;;;;;7.55;2.13;;;12.70;99.90;;;;;;5040283;28;20118;-68
2021/12/30 09:43:09;;;;;;;8.20;1.80;;;12.80;99.90;;;;;;5039890;28;20060;-68
2021/12/30 09:45:37;;;;;;;2.00;1.42;;;12.70;99.90;;;;;;5051451;28;20037;-68
2021/12/30 09:48:06;;;;;;;8.98;2.33;;;12.80;99.90;;;;;;5032058;28;20053;-68
2021/12/30 09:50:36;;;;;;;6.00;2.10;;;12.80;99.90;;;;;;5047775;28;20029;-68
2021/12/30 09:53:02;;;;;;;5.35;2.25;;;12.80;99.90;;;;;;5046264;28;20048;-68
2021/12/30 09:55:29;;;;;;;3.67;2.13;;;12.70;99.90;;;;;;5041903;28;20037;-68
2021/12/30 09:57:55;;;;;;;3.47;1.70;;;12.70;99.90;;;;;;5037528;28;20053;-68
2021/12/30 10:00:21;;;;;;;6.40;2.15;;;12.80;99.90;;;;;;5038184;28;20473;-70
2021/12/30 10:02:47;;;;;;;10.07;2.30;;;12.70;99.90;;;;;;5035288;28;20033;-68
2021/12/30 10:05:24;;;;;;;7.05;2.28;;;12.80;99.90;;;;;;5040100;28;20033;-69
2021/12/30 10:08:05;;;;;;;5.75;2.15;;;12.70;99.90;;;;;;5035563;28;20044;-69
2021/12/30 10:10:34;;;;;;;12.52;2.83;;;12.80;99.90;;;;;;5035469;28;20083;-67
2021/12/30 10:13:13;;;;;;;5.82;2.42;;;12.80;99.90;;;;;;5035972;28;20623;-71
2021/12/30 10:15:48;;;;;;;9.43;2.72;;;12.80;99.90;;;;;;5045327;28;20026;-69
2021/12/30 10:18:18;;;;;;;14.25;3.17;;;12.90;99.90;;;;;;5038294;28;20499;-68
2021/12/30 10:20:44;;;;;;;10.82;2.85;;;12.90;99.90;;;;;;5038061;28;20403;-68
2021/12/30 10:23:18;;;;;;;5.43;2.10;;;12.80;99.90;;;;;;5042438;28;20025;-68
2021/12/30 10:25:46;;;;;;;;;;;12.90;99.90;;;;;;5039989;28;20431;-68
2021/12/30 10:28:35;;;;;;;5.85;2.47;;;12.90;99.90;;;;;;5037077;28;19917;-68
2021/12/30 10:31:13;;;;;;;8.25;2.25;;;12.90;99.90;;;;;;5034028;28;20021;-68
2021/12/30 10:33:57;;;;;;;7.07;2.22;;;12.90;99.90;;;;;;5035862;28;20389;-67
2021/12/30 10:36:26;;;;;;;9.70;2.55;;;12.90;99.90;;;;;;5033209;28;20044;-67
2021/12/30 10:38:53;;;;;;;11.38;2.80;;;12.90;99.90;;;;;;5034923;28;20029;-67
2021/12/30 10:41:23;;;;;;;8.65;2.38;;;12.90;99.90;;;;;;5036144;28;20029;-67
2021/12/30 10:43:53;;;;;;;8.75;2.38;;;12.90;99.90;;;;;;5035979;28;20040;-67
2021/12/30 10:46:24;;;;;;;8.43;2.47;;;13.00;99.90;;;;;;5033551;28;20033;-67
2021/12/30 10:48:54;;;;;;;5.47;2.33;;;13.00;99.90;;;;;;5033774;28;20048;-67
2021/12/30 10:51:37;;;;;;;7.15;2.47;;;13.00;99.90;;;;;;5032855;28;20049;-67
2021/12/30 10:54:13;;;;;;;7.55;2.22;;;13.00;99.90;;;;;;5033717;28;20498;-67
2021/12/30 10:56:55;;;;;;;7.88;2.33;;;13.00;99.90;;;;;;5034083;28;20064;-67
2021/12/30 10:59:23;;;;;;;10.35;1.85;;;13.00;99.90;;;;;;5032032;28;20432;-67
2021/12/30 11:02:08;;;;;;;7.68;2.13;;;13.00;99.90;;;;;;5036138;28;20119;-69
2021/12/30 11:04:40;;;;;;;9.93;2.67;;;13.10;99.90;;;;;;5036014;28;20029;-67
2021/12/30 11:07:09;;;;;;;9.43;2.35;;;13.10;99.90;;;;;;5034271;28;20033;-67
2021/12/30 11:09:35;;;;;;;11.35;2.53;;;13.10;99.90;;;;;;5042788;28;20045;-67
2021/12/30 11:12:05;;;;;;;8.23;2.15;;;13.10;99.90;;;;;;5040985;28;20032;-67
2021/12/30 11:14:38;;;;;;;5.38;1.70;;;13.10;99.90;;;;;;5054948;28;20033;-67
2021/12/30 11:17:18;;;;;;;10.35;2.30;;;13.10;99.90;;;;;;5038918;28;20138;-67
2021/12/30 11:19:50;;;;;;;11.48;2.42;;;13.10;99.90;;;;;;5046397;28;20132;-67
2021/12/30 11:22:18;;;;;;;12.63;3.15;;;13.10;99.90;;;;;;5041191;28;20464;-67
2021/12/30 11:24:45;;;;;;;12.68;3.30;;;13.10;99.90;;;;;;5054382;28;20067;-67
2021/12/30 11:27:12;;;;;;;14.35;3.38;;;13.10;99.90;;;;;;5054313;28;20021;-66
2021/12/30 11:29:43;;;;;;;14.82;3.30;;;13.10;99.90;;;;;;5041068;28;20045;-67
2021/12/30 11:32:09;;;;;;;12.43;2.72;;;13.10;99.90;;;;;;5034356;28;20116;-67
2021/12/30 11:34:36;;;;;;;13.00;3.47;;;13.10;99.90;;;;;;5049688;28;20041;-68
2021/12/30 11:37:03;;;;;;;14.23;3.55;;;13.10;99.90;;;;;;5054037;28;20021;-70
2021/12/30 11:39:29;;;;;;;19.27;4.13;;;13.20;99.90;;;;;;5037468;28;20078;-70
2021/12/30 11:42:05;;;;;;;11.05;3.05;;;13.20;99.90;;;;;;5051203;28;20123;-69
2021/12/30 11:44:32;;;;;;;19.70;4.55;;;13.30;99.90;;;;;;5041135;28;20044;-70
2021/12/30 11:46:58;;;;;;;14.00;3.03;;;13.30;99.90;;;;;;5035246;28;20098;-67
2021/12/30 11:49:44;;;;;;;18.30;4.20;;;13.30;99.90;;;;;;5035494;28;20427;-67
2021/12/30 11:52:09;;;;;;;16.33;4.05;;;13.20;99.90;;;;;;5032102;28;20030;-67
2021/12/30 11:54:41;;;;;;;17.00;3.25;;;13.20;99.90;;;;;;5032599;28;20041;-67
2021/12/30 11:57:32;;;;;;;26.30;4.10;;;13.20;99.90;;;;;;5033128;28;20076;-67
2021/12/30 12:00:00;;;;;;;19.38;3.95;;;13.20;99.90;;;;;;5034905;28;20033;-67
2021/12/30 12:02:31;;;;;;;19.20;4.03;;;13.30;99.90;;;;;;5033221;28;20091;-71
2021/12/30 12:04:57;;;;;;;22.17;4.35;;;13.30;99.90;;;;;;5036511;28;20033;-67
2021/12/30 12:07:23;;;;;;;21.48;5.03;;;13.20;99.90;;;;;;5038336;28;20025;-67
2021/12/30 12:09:49;;;;;;;24.55;5.10;;;13.30;99.90;;;;;;5033481;28;20439;-66
2021/12/30 12:12:29;;;;;;;22.17;4.25;;;13.20;99.90;;;;;;5051624;28;20033;-66
2021/12/30 12:14:59;;;;;;;22.08;5.22;;;13.30;99.90;;;;;;5044008;28;20116;-67
2021/12/30 12:17:38;;;;;;;23.83;4.78;;;13.30;99.90;;;;;;5040872;28;20029;-66
2021/12/30 12:20:15;;;;;;;14.55;5.05;;;13.30;99.90;;;;;;5042969;28;20029;-67
2021/12/30 12:22:40;;;;;;;25.80;5.57;;;13.30;99.90;;;;;;5050139;28;20085;-67
2021/12/30 12:25:13;;;;;;;22.95;5.07;;;13.30;99.90;;;;;;5037114;28;20481;-67
2021/12/30 12:27:45;;;;;;;19.10;4.70;;;13.30;99.90;;;;;;5031799;28;20041;-67
2021/12/30 12:30:40;;;;;;;16.15;3.70;;;13.30;99.90;;;;;;5035969;28;20071;-67
2021/12/30 12:33:27;;;;;;;17.10;4.30;;;13.30;99.90;;;;;;5005824;28;20578;-67
2021/12/30 12:35:56;;;;;;;22.83;4.22;;;13.30;99.90;;;;;;5020834;28;20044;-68
2021/12/30 12:38:46;;;;;;;21.17;4.45;;;13.30;99.90;;;;;;5032932;28;20053;-68
2021/12/30 12:41:24;;;;;;;11.43;3.22;;;13.40;99.90;;;;;;5037819;28;20155;-67
2021/12/30 12:44:03;;;;;;;22.10;4.05;;;13.30;99.90;;;;;;5032620;28;20048;-67
2021/12/30 12:46:47;;;;;;;16.85;4.50;;;13.40;99.90;;;;;;5032166;28;20377;-68